sensor_id;sensor_type;location;lat;lon;timestamp;pressure;altitude;pressure_sealevel;temperature;humidity
57779;BME280;43608;49.486;9.640;2023-07-31T00:00:28;98603.44;;;16.22;70.12
57779;BME280;43608;49.486;9.640;2023-07-31T00:00:59;98599.03;;;16.19;70.30
57779;BME280;43608;49.486;9.640;2023-07-31T00:01:29;98619.31;;;16.28;70.13
57779;BME280;43608;49.486;9.640;2023-07-31T00:01:59;98617.50;;;16.29;70.28
57779;BME280;43608;49.486;9.640;2023-07-31T00:02:30;98611.28;;;16.27;70.28
57779;BME280;43608;49.486;9.640;2023-07-31T00:03:00;98608.66;;;16.25;70.45
57779;BME280;43608;49.486;9.640;2023-07-31T00:03:30;98609.56;;;16.26;70.33
57779;BME280;43608;49.486;9.640;2023-07-31T00:04:01;98589.41;;;16.12;70.36
57779;BME280;43608;49.486;9.640;2023-07-31T00:04:31;98611.28;;;16.28;70.50
57779;BME280;43608;49.486;9.640;2023-07-31T00:05:01;98615.78;;;16.26;70.83
57779;BME280;43608;49.486;9.640;2023-07-31T00:05:32;98588.50;;;16.13;70.67
57779;BME280;43608;49.486;9.640;2023-07-31T00:06:02;98591.97;;;16.17;70.44
57779;BME280;43608;49.486;9.640;2023-07-31T00:06:35;98610.44;;;16.26;70.34
57779;BME280;43608;49.486;9.640;2023-07-31T00:07:06;98610.44;;;16.26;70.43
57779;BME280;43608;49.486;9.640;2023-07-31T00:07:36;98616.69;;;16.25;70.63
57779;BME280;43608;49.486;9.640;2023-07-31T00:08:07;98587.72;;;16.10;70.44
57779;BME280;43608;49.486;9.640;2023-07-31T00:08:37;98543.00;;;15.83;70.49
57779;BME280;43608;49.486;9.640;2023-07-31T00:09:07;98613.09;;;16.26;70.58
57779;BME280;43608;49.486;9.640;2023-07-31T00:09:38;98600.97;;;16.14;70.34
57779;BME280;43608;49.486;9.640;2023-07-31T00:10:08;98604.44;;;16.18;70.52
57779;BME280;43608;49.486;9.640;2023-07-31T00:10:39;98591.28;;;16.10;70.46
57779;BME280;43608;49.486;9.640;2023-07-31T00:11:09;98586.00;;;16.09;70.53
57779;BME280;43608;49.486;9.640;2023-07-31T00:11:39;98594.72;;;16.15;70.48
57779;BME280;43608;49.486;9.640;2023-07-31T00:12:10;98599.19;;;16.13;70.50
57779;BME280;43608;49.486;9.640;2023-07-31T00:12:42;98602.69;;;16.17;70.51
57779;BME280;43608;49.486;9.640;2023-07-31T00:13:13;98597.41;;;16.14;70.40
57779;BME280;43608;49.486;9.640;2023-07-31T00:13:43;98623.81;;;16.26;70.64
57779;BME280;43608;49.486;9.640;2023-07-31T00:14:13;98615.91;;;16.22;70.39
57779;BME280;43608;49.486;9.640;2023-07-31T00:14:44;98616.69;;;16.25;70.43
57779;BME280;43608;49.486;9.640;2023-07-31T00:15:14;98614.94;;;16.24;70.40
57779;BME280;43608;49.486;9.640;2023-07-31T00:15:45;98600.88;;;16.17;70.29
57779;BME280;43608;49.486;9.640;2023-07-31T00:16:15;98590.38;;;16.10;70.60
57779;BME280;43608;49.486;9.640;2023-07-31T00:16:45;98572.84;;;15.99;70.22
57779;BME280;43608;49.486;9.640;2023-07-31T00:17:17;98603.50;;;16.19;70.35
57779;BME280;43608;49.486;9.640;2023-07-31T00:17:47;98606.16;;;16.21;70.22
57779;BME280;43608;49.486;9.640;2023-07-31T00:18:18;98614.06;;;16.24;70.34
57779;BME280;43608;49.486;9.640;2023-07-31T00:18:48;98623.84;;;16.25;70.30
57779;BME280;43608;49.486;9.640;2023-07-31T00:19:18;98615.84;;;16.25;70.40
57779;BME280;43608;49.486;9.640;2023-07-31T00:19:49;98610.53;;;16.23;70.39
57779;BME280;43608;49.486;9.640;2023-07-31T00:20:21;98600.97;;;16.14;70.43
57779;BME280;43608;49.486;9.640;2023-07-31T00:20:51;98612.31;;;16.23;70.29
57779;BME280;43608;49.486;9.640;2023-07-31T00:21:21;98540.38;;;15.82;70.50
57779;BME280;43608;49.486;9.640;2023-07-31T00:21:52;98607.88;;;16.22;70.22
57779;BME280;43608;49.486;9.640;2023-07-31T00:22:22;98610.47;;;16.25;70.16
57779;BME280;43608;49.486;9.640;2023-07-31T00:22:53;98605.25;;;16.20;70.26
57779;BME280;43608;49.486;9.640;2023-07-31T00:23:23;98587.66;;;16.13;70.29
57779;BME280;43608;49.486;9.640;2023-07-31T00:23:53;98600.81;;;16.21;70.21
57779;BME280;43608;49.486;9.640;2023-07-31T00:24:24;98590.28;;;16.14;70.43
57779;BME280;43608;49.486;9.640;2023-07-31T00:24:55;98607.81;;;16.25;70.31
57779;BME280;43608;49.486;9.640;2023-07-31T00:25:25;98587.59;;;16.14;70.37
57779;BME280;43608;49.486;9.640;2023-07-31T00:25:56;98572.63;;;16.09;70.34
57779;BME280;43608;49.486;9.640;2023-07-31T00:26:26;98604.38;;;16.19;70.44
57779;BME280;43608;49.486;9.640;2023-07-31T00:26:56;98592.09;;;16.12;70.49
57779;BME280;43608;49.486;9.640;2023-07-31T00:27:27;98571.72;;;16.08;70.53
57779;BME280;43608;49.486;9.640;2023-07-31T00:27:57;98596.41;;;16.18;70.57
57779;BME280;43608;49.486;9.640;2023-07-31T00:28:28;98595.47;;;16.19;70.80
57779;BME280;43608;49.486;9.640;2023-07-31T00:28:58;98583.16;;;16.13;70.55
57779;BME280;43608;49.486;9.640;2023-07-31T00:29:29;98578.03;;;16.06;70.64
57779;BME280;43608;49.486;9.640;2023-07-31T00:29:59;98591.19;;;16.13;70.37
57779;BME280;43608;49.486;9.640;2023-07-31T00:30:30;98597.28;;;16.18;70.42
57779;BME280;43608;49.486;9.640;2023-07-31T00:31:00;98599.94;;;16.18;70.63
57779;BME280;43608;49.486;9.640;2023-07-31T00:31:31;98590.28;;;16.14;70.74
57779;BME280;43608;49.486;9.640;2023-07-31T00:32:02;98570.13;;;16.02;70.46
57779;BME280;43608;49.486;9.640;2023-07-31T00:32:32;98594.59;;;16.18;70.67
57779;BME280;43608;49.486;9.640;2023-07-31T00:33:03;98592.94;;;16.14;70.71
57779;BME280;43608;49.486;9.640;2023-07-31T00:33:34;98576.28;;;16.05;70.59
57779;BME280;43608;49.486;9.640;2023-07-31T00:34:05;98574.53;;;16.04;70.73
57779;BME280;43608;49.486;9.640;2023-07-31T00:34:35;98588.72;;;16.06;70.57
57779;BME280;43608;49.486;9.640;2023-07-31T00:35:06;98586.00;;;16.09;70.68
57779;BME280;43608;49.486;9.640;2023-07-31T00:35:36;98578.94;;;16.05;70.46
57779;BME280;43608;49.486;9.640;2023-07-31T00:36:06;98570.94;;;16.05;70.56
57779;BME280;43608;49.486;9.640;2023-07-31T00:36:37;98579.84;;;16.05;70.78
57779;BME280;43608;49.486;9.640;2023-07-31T00:37:07;98589.38;;;16.14;70.57
57779;BME280;43608;49.486;9.640;2023-07-31T00:37:37;98585.94;;;16.10;70.89
57779;BME280;43608;49.486;9.640;2023-07-31T00:38:08;98602.72;;;16.15;70.94
57779;BME280;43608;49.486;9.640;2023-07-31T00:38:38;98554.56;;;15.85;70.91
57779;BME280;43608;49.486;9.640;2023-07-31T00:39:08;98600.06;;;16.14;70.92
57779;BME280;43608;49.486;9.640;2023-07-31T00:39:39;98593.22;;;16.05;70.85
57779;BME280;43608;49.486;9.640;2023-07-31T00:40:09;98608.06;;;16.15;70.79
57779;BME280;43608;49.486;9.640;2023-07-31T00:40:40;98603.69;;;16.13;70.83
57779;BME280;43608;49.486;9.640;2023-07-31T00:41:10;98612.56;;;16.13;70.78
57779;BME280;43608;49.486;9.640;2023-07-31T00:41:40;98614.38;;;16.13;70.87
57779;BME280;43608;49.486;9.640;2023-07-31T00:42:11;98591.44;;;16.04;70.86
57779;BME280;43608;49.486;9.640;2023-07-31T00:42:41;98603.75;;;16.11;70.79
57779;BME280;43608;49.486;9.640;2023-07-31T00:43:12;98610.00;;;16.10;71.13
57779;BME280;43608;49.486;9.640;2023-07-31T00:43:42;98589.69;;;16.03;71.02
57779;BME280;43608;49.486;9.640;2023-07-31T00:44:13;98605.56;;;16.09;71.22
57779;BME280;43608;49.486;9.640;2023-07-31T00:44:43;98609.16;;;16.08;71.09
57779;BME280;43608;49.486;9.640;2023-07-31T00:45:13;98579.34;;;15.91;71.24
57779;BME280;43608;49.486;9.640;2023-07-31T00:45:44;98608.34;;;16.06;71.20
57779;BME280;43608;49.486;9.640;2023-07-31T00:46:14;98597.00;;;15.96;71.14
57779;BME280;43608;49.486;9.640;2023-07-31T00:46:45;98586.41;;;15.93;71.18
57779;BME280;43608;49.486;9.640;2023-07-31T00:47:15;98593.47;;;15.96;71.19
57779;BME280;43608;49.486;9.640;2023-07-31T00:47:45;98575.94;;;15.85;71.37
57779;BME280;43608;49.486;9.640;2023-07-31T00:48:16;98576.69;;;15.91;71.30
57779;BME280;43608;49.486;9.640;2023-07-31T00:48:46;98582.03;;;15.91;71.29
57779;BME280;43608;49.486;9.640;2023-07-31T00:49:17;98586.31;;;15.96;71.24
57779;BME280;43608;49.486;9.640;2023-07-31T00:49:48;98595.94;;;16.02;71.20
57779;BME280;43608;49.486;9.640;2023-07-31T00:50:18;98577.66;;;15.88;71.10
57779;BME280;43608;49.486;9.640;2023-07-31T00:50:49;98597.75;;;16.01;71.30
57779;BME280;43608;49.486;9.640;2023-07-31T00:51:20;98582.88;;;15.91;71.21
57779;BME280;43608;49.486;9.640;2023-07-31T00:51:51;98574.06;;;15.88;71.16
57779;BME280;43608;49.486;9.640;2023-07-31T00:52:22;98592.47;;;16.00;71.38
57779;BME280;43608;49.486;9.640;2023-07-31T00:52:52;98569.78;;;15.82;71.24
57779;BME280;43608;49.486;9.640;2023-07-31T00:53:24;98596.00;;;16.00;71.20
57779;BME280;43608;49.486;9.640;2023-07-31T00:53:55;98588.94;;;15.98;71.22
57779;BME280;43608;49.486;9.640;2023-07-31T00:54:26;98589.84;;;15.98;71.14
57779;BME280;43608;49.486;9.640;2023-07-31T00:54:56;98602.25;;;15.99;71.28
57779;BME280;43608;49.486;9.640;2023-07-31T00:55:26;98590.00;;;15.92;71.17
57779;BME280;43608;49.486;9.640;2023-07-31T00:55:57;98584.59;;;15.94;71.31
57779;BME280;43608;49.486;9.640;2023-07-31T00:56:28;98590.81;;;15.94;71.27
57779;BME280;43608;49.486;9.640;2023-07-31T00:56:59;98604.13;;;15.97;71.20
57779;BME280;43608;49.486;9.640;2023-07-31T00:57:31;98565.38;;;15.79;71.43
57779;BME280;43608;49.486;9.640;2023-07-31T00:58:02;98557.41;;;15.78;71.48
57779;BME280;43608;49.486;9.640;2023-07-31T00:58:32;98574.13;;;15.86;71.46
57779;BME280;43608;49.486;9.640;2023-07-31T00:59:02;98578.59;;;15.85;71.37
57779;BME280;43608;49.486;9.640;2023-07-31T00:59:33;98584.75;;;15.88;71.44
57779;BME280;43608;49.486;9.640;2023-07-31T01:00:03;98591.72;;;15.95;71.29
57779;BME280;43608;49.486;9.640;2023-07-31T01:00:34;98590.84;;;15.93;71.39
57779;BME280;43608;49.486;9.640;2023-07-31T01:01:04;98575.97;;;15.84;71.20
57779;BME280;43608;49.486;9.640;2023-07-31T01:01:35;98596.16;;;15.96;71.37
57779;BME280;43608;49.486;9.640;2023-07-31T01:02:05;98579.41;;;15.88;71.30
57779;BME280;43608;49.486;9.640;2023-07-31T01:02:36;98580.22;;;15.91;71.02
57779;BME280;43608;49.486;9.640;2023-07-31T01:03:07;98588.94;;;15.98;71.02
57779;BME280;43608;49.486;9.640;2023-07-31T01:03:38;98554.63;;;15.82;70.91
57779;BME280;43608;49.486;9.640;2023-07-31T01:04:09;98575.78;;;15.90;70.98
57779;BME280;43608;49.486;9.640;2023-07-31T01:04:42;98582.78;;;15.96;71.02
57779;BME280;43608;49.486;9.640;2023-07-31T01:05:13;98583.53;;;15.99;70.93
57779;BME280;43608;49.486;9.640;2023-07-31T01:06:09;98581.81;;;15.98;70.90
57779;BME280;43608;49.486;9.640;2023-07-31T01:07:35;98585.25;;;16.02;70.66
57779;BME280;43608;49.486;9.640;2023-07-31T01:08:15;98577.34;;;15.99;70.76
57779;BME280;43608;49.486;9.640;2023-07-31T01:10:22;98585.19;;;16.05;70.58
57779;BME280;43608;49.486;9.640;2023-07-31T01:11:02;98580.75;;;16.04;70.46
57779;BME280;43608;49.486;9.640;2023-07-31T01:11:50;98571.03;;;16.01;70.55
57779;BME280;43608;49.486;9.640;2023-07-31T01:12:22;98568.44;;;15.98;70.75
57779;BME280;43608;49.486;9.640;2023-07-31T01:12:55;98567.59;;;15.96;70.38
57779;BME280;43608;49.486;9.640;2023-07-31T01:13:26;98580.75;;;16.04;70.50
57779;BME280;43608;49.486;9.640;2023-07-31T01:13:57;98579.75;;;16.08;70.32
57779;BME280;43608;49.486;9.640;2023-07-31T01:14:28;98586.91;;;16.08;70.54
57779;BME280;43608;49.486;9.640;2023-07-31T01:15:31;98583.31;;;16.09;70.60
57779;BME280;43608;49.486;9.640;2023-07-31T01:16:01;98590.44;;;16.08;70.41
57779;BME280;43608;49.486;9.640;2023-07-31T01:16:31;98573.81;;;15.97;70.35
57779;BME280;43608;49.486;9.640;2023-07-31T01:17:02;98585.09;;;16.08;70.42
57779;BME280;43608;49.486;9.640;2023-07-31T01:17:32;98575.50;;;16.01;70.41
57779;BME280;43608;49.486;9.640;2023-07-31T01:18:03;98579.91;;;16.02;70.51
57779;BME280;43608;49.486;9.640;2023-07-31T01:18:33;98594.91;;;16.08;70.60
57779;BME280;43608;49.486;9.640;2023-07-31T01:19:04;98580.75;;;16.04;70.65
57779;BME280;43608;49.486;9.640;2023-07-31T01:19:36;98583.44;;;16.04;70.56
57779;BME280;43608;49.486;9.640;2023-07-31T01:20:26;98587.81;;;16.07;70.42
57779;BME280;43608;49.486;9.640;2023-07-31T01:21:15;98590.50;;;16.07;70.42
57779;BME280;43608;49.486;9.640;2023-07-31T01:23:02;98580.72;;;16.06;70.46
57779;BME280;43608;49.486;9.640;2023-07-31T01:26:00;98564.66;;;16.06;70.37
57779;BME280;43608;49.486;9.640;2023-07-31T01:26:38;98565.56;;;16.06;70.27
57779;BME280;43608;49.486;9.640;2023-07-31T01:27:12;98573.53;;;16.08;70.53
57779;BME280;43608;49.486;9.640;2023-07-31T01:27:53;98553.22;;;16.00;70.27
57779;BME280;43608;49.486;9.640;2023-07-31T01:28:43;98553.16;;;16.04;70.23
57779;BME280;43608;49.486;9.640;2023-07-31T01:29:23;98569.00;;;16.10;70.24
57779;BME280;43608;49.486;9.640;2023-07-31T01:29:59;98568.09;;;16.11;69.96
57779;BME280;43608;49.486;9.640;2023-07-31T01:30:38;98545.22;;;16.00;69.78
57779;BME280;43608;49.486;9.640;2023-07-31T01:31:12;98563.63;;;16.11;69.99
57779;BME280;43608;49.486;9.640;2023-07-31T01:31:48;98561.81;;;16.12;69.99
57779;BME280;43608;49.486;9.640;2023-07-31T01:32:21;98559.16;;;16.12;69.97
57779;BME280;43608;49.486;9.640;2023-07-31T01:32:52;98557.34;;;16.12;69.90
57779;BME280;43608;49.486;9.640;2023-07-31T01:33:25;98547.75;;;16.05;70.02
57779;BME280;43608;49.486;9.640;2023-07-31T01:33:59;98559.09;;;16.13;70.07
57779;BME280;43608;49.486;9.640;2023-07-31T01:34:31;98541.63;;;16.01;69.95
57779;BME280;43608;49.486;9.640;2023-07-31T01:35:02;98558.25;;;16.13;70.08
57779;BME280;43608;49.486;9.640;2023-07-31T01:35:36;98560.91;;;16.13;69.98
57779;BME280;43608;49.486;9.640;2023-07-31T01:36:07;98562.69;;;16.12;70.07
57779;BME280;43608;49.486;9.640;2023-07-31T01:36:38;98529.28;;;15.97;70.14
57779;BME280;43608;49.486;9.640;2023-07-31T01:37:08;98521.41;;;15.91;70.06
57779;BME280;43608;49.486;9.640;2023-07-31T01:37:39;98559.09;;;16.13;70.09
57779;BME280;43608;49.486;9.640;2023-07-31T01:38:09;98545.91;;;16.07;69.90
57779;BME280;43608;49.486;9.640;2023-07-31T01:38:40;98551.25;;;16.07;69.97
57779;BME280;43608;49.486;9.640;2023-07-31T01:39:10;98560.91;;;16.13;70.16
57779;BME280;43608;49.486;9.640;2023-07-31T01:39:41;98541.63;;;16.01;70.30
57779;BME280;43608;49.486;9.640;2023-07-31T01:40:11;98549.53;;;16.05;70.16
57779;BME280;43608;49.486;9.640;2023-07-31T01:40:42;98546.78;;;16.08;70.13
57779;BME280;43608;49.486;9.640;2023-07-31T01:41:12;98546.84;;;16.06;70.03
57779;BME280;43608;49.486;9.640;2023-07-31T01:41:43;98551.25;;;16.07;70.16
57779;BME280;43608;49.486;9.640;2023-07-31T01:42:14;98553.06;;;16.07;70.13
57779;BME280;43608;49.486;9.640;2023-07-31T01:42:44;98546.78;;;16.08;70.03
57779;BME280;43608;49.486;9.640;2023-07-31T01:43:14;98551.19;;;16.10;70.00
57779;BME280;43608;49.486;9.640;2023-07-31T01:43:46;98554.72;;;16.11;70.21
57779;BME280;43608;49.486;9.640;2023-07-31T01:44:16;98547.75;;;16.05;70.06
57779;BME280;43608;49.486;9.640;2023-07-31T01:44:47;98559.19;;;16.10;69.82
57779;BME280;43608;49.486;9.640;2023-07-31T01:45:17;98549.53;;;16.05;69.78
57779;BME280;43608;49.486;9.640;2023-07-31T01:45:48;98515.44;;;15.83;70.16
57779;BME280;43608;49.486;9.640;2023-07-31T01:46:18;98524.09;;;15.91;69.97
57779;BME280;43608;49.486;9.640;2023-07-31T01:46:48;98543.50;;;15.98;69.94
57779;BME280;43608;49.486;9.640;2023-07-31T01:47:19;98552.22;;;16.05;70.14
57779;BME280;43608;49.486;9.640;2023-07-31T01:47:49;98554.06;;;16.02;70.13
57779;BME280;43608;49.486;9.640;2023-07-31T01:48:19;98559.31;;;16.06;70.18
57779;BME280;43608;49.486;9.640;2023-07-31T01:48:50;98556.69;;;16.04;70.20
57779;BME280;43608;49.486;9.640;2023-07-31T01:49:20;98554.94;;;16.03;70.37
57779;BME280;43608;49.486;9.640;2023-07-31T01:49:51;98539.16;;;15.94;70.32
57779;BME280;43608;49.486;9.640;2023-07-31T01:50:21;98547.03;;;16.00;70.22
57779;BME280;43608;49.486;9.640;2023-07-31T01:50:52;98551.47;;;15.99;70.34
57779;BME280;43608;49.486;9.640;2023-07-31T01:51:22;98543.53;;;15.96;70.35
57779;BME280;43608;49.486;9.640;2023-07-31T01:51:52;98541.88;;;15.92;70.39
57779;BME280;43608;49.486;9.640;2023-07-31T01:52:23;98547.06;;;15.98;70.33
57779;BME280;43608;49.486;9.640;2023-07-31T01:52:53;98548.84;;;15.98;70.44
57779;BME280;43608;49.486;9.640;2023-07-31T01:53:23;98558.53;;;16.02;70.22
57779;BME280;43608;49.486;9.640;2023-07-31T01:53:53;98546.16;;;15.98;70.34
57779;BME280;43608;49.486;9.640;2023-07-31T01:54:24;98554.13;;;16.01;70.27
57779;BME280;43608;49.486;9.640;2023-07-31T01:54:54;98549.69;;;16.00;70.24
57779;BME280;43608;49.486;9.640;2023-07-31T01:55:25;98545.47;;;15.91;70.43
57779;BME280;43608;49.486;9.640;2023-07-31T01:55:55;98556.78;;;16.01;70.34
57779;BME280;43608;49.486;9.640;2023-07-31T01:56:25;98558.56;;;16.00;70.38
57779;BME280;43608;49.486;9.640;2023-07-31T01:56:56;98536.66;;;15.88;70.31
57779;BME280;43608;49.486;9.640;2023-07-31T01:57:26;98545.41;;;15.93;70.29
57779;BME280;43608;49.486;9.640;2023-07-31T01:57:56;98555.03;;;16.00;70.35
57779;BME280;43608;49.486;9.640;2023-07-31T01:58:27;98533.06;;;15.89;70.39
57779;BME280;43608;49.486;9.640;2023-07-31T01:58:57;98523.41;;;15.84;70.44
57779;BME280;43608;49.486;9.640;2023-07-31T01:59:27;98560.38;;;16.00;70.31
57779;BME280;43608;49.486;9.640;2023-07-31T01:59:59;98542.75;;;15.93;70.84
57779;BME280;43608;49.486;9.640;2023-07-31T02:00:29;98541.94;;;15.91;70.17
57779;BME280;43608;49.486;9.640;2023-07-31T02:00:59;98554.13;;;15.99;70.38
57779;BME280;43608;49.486;9.640;2023-07-31T02:01:30;98544.41;;;15.97;70.26
57779;BME280;43608;49.486;9.640;2023-07-31T02:02:00;98533.97;;;15.88;70.33
57779;BME280;43608;49.486;9.640;2023-07-31T02:02:30;98532.09;;;15.91;70.49
57779;BME280;43608;49.486;9.640;2023-07-31T02:03:01;98540.94;;;15.95;70.29
57779;BME280;43608;49.486;9.640;2023-07-31T02:03:31;98537.41;;;15.93;70.09
57779;BME280;43608;49.486;9.640;2023-07-31T02:04:01;98554.06;;;16.02;70.46
57779;BME280;43608;49.486;9.640;2023-07-31T02:04:32;98539.22;;;15.92;70.29
57779;BME280;43608;49.486;9.640;2023-07-31T02:05:03;98536.53;;;15.92;70.25
57779;BME280;43608;49.486;9.640;2023-07-31T02:05:33;98500.59;;;15.71;70.20
57779;BME280;43608;49.486;9.640;2023-07-31T02:06:04;98530.31;;;15.92;70.12
57779;BME280;43608;49.486;9.640;2023-07-31T02:06:37;98551.53;;;15.98;70.07
57779;BME280;43608;49.486;9.640;2023-07-31T02:07:07;98549.63;;;16.01;70.31
57779;BME280;43608;49.486;9.640;2023-07-31T02:07:38;98505.78;;;15.76;70.35
57779;BME280;43608;49.486;9.640;2023-07-31T02:08:08;98550.38;;;16.07;70.13
57779;BME280;43608;49.486;9.640;2023-07-31T02:08:38;98540.81;;;15.98;70.32
57779;BME280;43608;49.486;9.640;2023-07-31T02:09:09;98547.81;;;16.02;70.30
57779;BME280;43608;49.486;9.640;2023-07-31T02:09:39;98554.88;;;16.06;70.40
57779;BME280;43608;49.486;9.640;2023-07-31T02:10:09;98532.97;;;15.93;70.38
57779;BME280;43608;49.486;9.640;2023-07-31T02:10:40;98552.19;;;16.06;70.30
57779;BME280;43608;49.486;9.640;2023-07-31T02:11:10;98540.75;;;16.01;70.20
57779;BME280;43608;49.486;9.640;2023-07-31T02:11:41;98544.19;;;16.05;70.36
57779;BME280;43608;49.486;9.640;2023-07-31T02:12:11;98535.47;;;15.98;70.48
57779;BME280;43608;49.486;9.640;2023-07-31T02:12:42;98543.38;;;16.02;70.54
57779;BME280;43608;49.486;9.640;2023-07-31T02:13:12;98536.31;;;16.00;70.55
57779;BME280;43608;49.486;9.640;2023-07-31T02:13:42;98539.75;;;16.05;70.48
57779;BME280;43608;49.486;9.640;2023-07-31T02:14:13;98536.38;;;15.97;70.38
57779;BME280;43608;49.486;9.640;2023-07-31T02:14:43;98537.13;;;16.04;70.38
57779;BME280;43608;49.486;9.640;2023-07-31T02:15:14;98527.56;;;15.95;70.25
57779;BME280;43608;49.486;9.640;2023-07-31T02:15:45;98542.38;;;16.07;70.23
57779;BME280;43608;49.486;9.640;2023-07-31T02:16:18;98533.69;;;15.98;70.28
57779;BME280;43608;49.486;9.640;2023-07-31T02:16:49;98507.44;;;15.80;70.33
57779;BME280;43608;49.486;9.640;2023-07-31T02:17:19;98537.13;;;16.04;70.17
57779;BME280;43608;49.486;9.640;2023-07-31T02:17:50;98541.56;;;16.03;70.35
57779;BME280;43608;49.486;9.640;2023-07-31T02:18:20;98510.84;;;15.88;70.13
57779;BME280;43608;49.486;9.640;2023-07-31T02:18:52;98544.13;;;16.08;70.42
57779;BME280;43608;49.486;9.640;2023-07-31T02:19:22;98528.47;;;15.94;70.17
57779;BME280;43608;49.486;9.640;2023-07-31T02:19:53;98537.03;;;16.07;70.23
57779;BME280;43608;49.486;9.640;2023-07-31T02:20:23;98536.28;;;16.01;70.15
57779;BME280;43608;49.486;9.640;2023-07-31T02:20:54;98544.19;;;16.06;70.19
57779;BME280;43608;49.486;9.640;2023-07-31T02:21:24;98534.41;;;16.05;70.05
57779;BME280;43608;49.486;9.640;2023-07-31T02:21:54;98528.34;;;15.98;70.15
57779;BME280;43608;49.486;9.640;2023-07-31T02:22:25;98537.88;;;16.07;70.19
57779;BME280;43608;49.486;9.640;2023-07-31T02:22:55;98542.31;;;16.08;70.25
57779;BME280;43608;49.486;9.640;2023-07-31T02:23:25;98515.00;;;15.97;70.12
57779;BME280;43608;49.486;9.640;2023-07-31T02:23:56;98533.44;;;16.08;70.17
57779;BME280;43608;49.486;9.640;2023-07-31T02:24:26;98528.16;;;16.05;70.01
57779;BME280;43608;49.486;9.640;2023-07-31T02:24:56;98515.91;;;15.97;69.86
57779;BME280;43608;49.486;9.640;2023-07-31T02:25:27;98504.53;;;15.89;69.66
57779;BME280;43608;49.486;9.640;2023-07-31T02:25:57;98528.94;;;16.08;69.79
57779;BME280;43608;49.486;9.640;2023-07-31T02:26:27;98514.19;;;15.95;69.83
57779;BME280;43608;49.486;9.640;2023-07-31T02:26:58;98526.28;;;16.08;69.83
57779;BME280;43608;49.486;9.640;2023-07-31T02:27:28;98514.03;;;15.99;69.71
57779;BME280;43608;49.486;9.640;2023-07-31T02:27:59;98504.31;;;15.97;69.70
57779;BME280;43608;49.486;9.640;2023-07-31T02:28:29;98515.81;;;16.00;69.73
57779;BME280;43608;49.486;9.640;2023-07-31T02:29:00;98508.69;;;15.99;69.78
57779;BME280;43608;49.486;9.640;2023-07-31T02:29:30;98506.06;;;15.98;69.73
57779;BME280;43608;49.486;9.640;2023-07-31T02:30:00;98512.13;;;16.05;69.71
57779;BME280;43608;49.486;9.640;2023-07-31T02:30:31;98501.63;;;15.98;69.76
57779;BME280;43608;49.486;9.640;2023-07-31T02:31:01;98505.09;;;16.00;69.53
57779;BME280;43608;49.486;9.640;2023-07-31T02:31:32;98515.81;;;16.00;69.85
57779;BME280;43608;49.486;9.640;2023-07-31T02:32:02;98513.97;;;16.02;69.71
57779;BME280;43608;49.486;9.640;2023-07-31T02:32:33;98514.78;;;16.06;69.76
57779;BME280;43608;49.486;9.640;2023-07-31T02:33:04;98519.22;;;16.06;69.78
57779;BME280;43608;49.486;9.640;2023-07-31T02:33:35;98515.72;;;16.04;69.72
57779;BME280;43608;49.486;9.640;2023-07-31T02:34:05;98501.63;;;15.98;69.84
57779;BME280;43608;49.486;9.640;2023-07-31T02:34:35;98512.22;;;16.01;69.74
57779;BME280;43608;49.486;9.640;2023-07-31T02:35:06;98500.91;;;15.92;69.70
57779;BME280;43608;49.486;9.640;2023-07-31T02:35:36;98475.53;;;15.75;69.70
57779;BME280;43608;49.486;9.640;2023-07-31T02:36:07;98519.28;;;16.04;69.79
57779;BME280;43608;49.486;9.640;2023-07-31T02:36:37;98522.00;;;16.02;70.05
57779;BME280;43608;49.486;9.640;2023-07-31T02:37:08;98485.06;;;15.85;70.04
57779;BME280;43608;49.486;9.640;2023-07-31T02:37:38;98483.41;;;15.81;69.95
57779;BME280;43608;49.486;9.640;2023-07-31T02:38:09;98479.78;;;15.84;70.30
57779;BME280;43608;49.486;9.640;2023-07-31T02:38:39;98493.03;;;15.87;69.96
57779;BME280;43608;49.486;9.640;2023-07-31T02:39:09;98506.06;;;15.98;70.37
57779;BME280;43608;49.486;9.640;2023-07-31T02:39:40;98518.44;;;16.02;70.03
57779;BME280;43608;49.486;9.640;2023-07-31T02:40:10;98497.31;;;15.93;70.26
57779;BME280;43608;49.486;9.640;2023-07-31T02:40:41;98514.94;;;16.00;70.13
57779;BME280;43608;49.486;9.640;2023-07-31T02:41:11;98521.09;;;16.02;70.12
57779;BME280;43608;49.486;9.640;2023-07-31T02:41:41;98510.41;;;16.02;69.96
57779;BME280;43608;49.486;9.640;2023-07-31T02:42:12;98503.41;;;15.98;70.08
57779;BME280;43608;49.486;9.640;2023-07-31T02:42:43;98497.38;;;15.91;69.80
57779;BME280;43608;49.486;9.640;2023-07-31T02:43:13;98510.34;;;16.05;70.02
57779;BME280;43608;49.486;9.640;2023-07-31T02:43:44;98518.34;;;16.05;69.80
57779;BME280;43608;49.486;9.640;2023-07-31T02:44:14;98507.72;;;16.04;69.91
57779;BME280;43608;49.486;9.640;2023-07-31T02:44:45;98513.00;;;16.05;70.12
57779;BME280;43608;49.486;9.640;2023-07-31T02:45:15;98496.31;;;15.97;70.09
57779;BME280;43608;49.486;9.640;2023-07-31T02:45:45;98511.19;;;16.06;69.83
57779;BME280;43608;49.486;9.640;2023-07-31T02:46:16;98509.44;;;16.06;69.55
57779;BME280;43608;49.486;9.640;2023-07-31T02:46:46;98514.66;;;16.09;69.71
57779;BME280;43608;49.486;9.640;2023-07-31T02:47:16;98519.09;;;16.10;69.78
57779;BME280;43608;49.486;9.640;2023-07-31T02:47:47;98494.53;;;15.97;69.80
57779;BME280;43608;49.486;9.640;2023-07-31T02:48:17;98510.38;;;16.04;69.73
57779;BME280;43608;49.486;9.640;2023-07-31T02:48:47;98502.59;;;15.96;69.66
57779;BME280;43608;49.486;9.640;2023-07-31T02:49:18;98502.44;;;16.00;69.58
57779;BME280;43608;49.486;9.640;2023-07-31T02:49:48;98512.97;;;16.07;69.76
57779;BME280;43608;49.486;9.640;2023-07-31T02:50:18;98511.31;;;16.02;69.61
57779;BME280;43608;49.486;9.640;2023-07-31T02:50:49;98496.31;;;15.97;69.60
57779;BME280;43608;49.486;9.640;2023-07-31T02:51:19;98521.72;;;16.12;69.62
57779;BME280;43608;49.486;9.640;2023-07-31T02:51:51;98526.22;;;16.10;69.90